createdAt,value
2018-06-22T00:01:48.784Z,10.10
2018-06-22T00:04:16.941Z,10.10
2018-06-22T00:06:45.153Z,10.10
2018-06-22T00:09:13.312Z,10.00
2018-06-22T00:11:41.512Z,10.00
2018-06-22T00:14:09.795Z,10.00
2018-06-22T00:16:38.347Z,10.00
2018-06-22T00:19:06.512Z,10.00
2018-06-22T00:21:34.892Z,10.00
2018-06-22T00:24:03.046Z,10.00
2018-06-22T00:26:31.260Z,10.00
2018-06-22T00:28:59.417Z,10.00
2018-06-22T00:31:27.724Z,10.00
2018-06-22T00:38:51.777Z,9.90
2018-06-22T00:41:20.471Z,9.90
2018-06-22T00:43:49.273Z,9.90
2018-06-22T00:46:17.495Z,9.90
2018-06-22T00:48:45.800Z,9.80
2018-06-22T00:51:13.941Z,9.80
2018-06-22T00:56:15.614Z,9.80
2018-06-22T01:01:11.815Z,9.80
2018-06-22T01:03:39.956Z,9.80
2018-06-22T01:06:08.113Z,9.80
2018-06-22T01:08:36.275Z,9.80
2018-06-22T01:11:04.468Z,9.70
2018-06-22T01:13:32.649Z,9.80
2018-06-22T01:16:00.898Z,9.80
2018-06-22T01:18:29.141Z,9.80
2018-06-22T01:20:57.291Z,9.80
2018-06-22T01:23:25.504Z,9.80
2018-06-22T01:25:53.737Z,9.80
2018-06-22T01:28:21.900Z,9.80
2018-06-22T01:30:50.058Z,9.80
2018-06-22T01:33:18.216Z,9.80
2018-06-22T01:35:46.371Z,9.80
2018-06-22T01:38:14.562Z,9.80
2018-06-22T01:40:42.713Z,9.80
2018-06-22T01:43:10.888Z,9.80
2018-06-22T01:45:39.084Z,9.80
2018-06-22T01:48:07.383Z,9.80
2018-06-22T01:50:35.533Z,9.80
2018-06-22T01:53:03.717Z,9.80
2018-06-22T01:55:31.897Z,9.80
2018-06-22T01:58:01.047Z,9.80
2018-06-22T02:02:57.127Z,9.80
2018-06-22T02:05:25.284Z,9.80
2018-06-22T02:07:53.487Z,9.80
2018-06-22T02:10:21.794Z,9.80
2018-06-22T02:12:49.969Z,9.80
2018-06-22T02:15:18.180Z,9.80
2018-06-22T02:17:46.895Z,9.80
2018-06-22T02:20:15.098Z,9.80
2018-06-22T02:22:43.445Z,9.80
2018-06-22T02:25:11.708Z,9.80
2018-06-22T02:27:39.852Z,9.80
2018-06-22T02:30:08.009Z,9.80
2018-06-22T02:32:36.190Z,9.70
2018-06-22T02:35:04.385Z,9.70
2018-06-22T02:37:32.560Z,9.80
2018-06-22T02:40:00.756Z,9.80
2018-06-22T02:42:28.862Z,9.80
2018-06-22T02:44:57.030Z,9.70
2018-06-22T02:47:25.268Z,9.70
2018-06-22T02:49:53.521Z,9.70
2018-06-22T02:52:21.686Z,9.70
2018-06-22T02:54:49.854Z,9.70
2018-06-22T02:57:18.612Z,9.70
2018-06-22T02:59:46.809Z,9.70
2018-06-22T03:02:14.988Z,9.70
2018-06-22T03:04:43.248Z,9.70
2018-06-22T03:07:11.423Z,9.70
2018-06-22T03:09:39.608Z,9.70
2018-06-22T03:12:07.840Z,9.70
2018-06-22T03:14:36.000Z,9.60
2018-06-22T03:17:04.217Z,9.60
2018-06-22T03:19:32.364Z,9.60
2018-06-22T03:22:00.517Z,9.60
2018-06-22T03:24:28.735Z,9.60
2018-06-22T03:26:56.988Z,9.60
2018-06-22T03:29:25.168Z,9.60
2018-06-22T03:31:53.490Z,9.60
2018-06-22T03:34:21.549Z,9.60
2018-06-22T03:36:49.773Z,9.60
2018-06-22T03:39:18.025Z,9.60
2018-06-22T03:41:46.200Z,9.60
2018-06-22T03:44:14.340Z,9.60
2018-06-22T03:46:42.491Z,9.60
2018-06-22T03:49:10.669Z,9.60
2018-06-22T03:51:38.848Z,9.60
2018-06-22T03:54:07.088Z,9.60
2018-06-22T03:59:27.635Z,9.60
2018-06-22T04:01:57.020Z,9.60
2018-06-22T04:04:25.278Z,9.60
2018-06-22T04:06:53.647Z,9.60
2018-06-22T04:09:21.772Z,9.60
2018-06-22T04:11:49.985Z,9.60
2018-06-22T04:14:18.190Z,9.60
2018-06-22T04:16:46.421Z,9.60
2018-06-22T04:19:14.563Z,9.60
2018-06-22T04:24:14.672Z,9.70
2018-06-22T04:26:43.122Z,9.70
2018-06-22T04:29:13.340Z,9.70
2018-06-22T04:31:41.560Z,9.70
2018-06-22T04:34:09.759Z,9.70
2018-06-22T04:36:37.969Z,9.80
2018-06-22T04:39:07.880Z,9.80
2018-06-22T04:41:36.239Z,9.80
2018-06-22T04:44:04.773Z,9.80
2018-06-22T04:46:32.960Z,9.90
2018-06-22T04:49:01.131Z,9.90
2018-06-22T04:51:29.916Z,10.00
2018-06-22T04:53:58.086Z,10.00
2018-06-22T04:56:26.268Z,10.00
2018-06-22T04:58:54.460Z,10.10
2018-06-22T05:01:22.593Z,10.20
2018-06-22T05:03:50.784Z,10.20
2018-06-22T05:06:19.045Z,10.30
2018-06-22T05:08:47.251Z,10.30
2018-06-22T05:11:15.516Z,10.40
2018-06-22T05:13:43.649Z,10.40
2018-06-22T05:16:11.852Z,10.40
2018-06-22T05:18:39.996Z,10.50
2018-06-22T05:21:08.168Z,10.50
2018-06-22T05:23:36.363Z,10.60
2018-06-22T05:26:04.750Z,10.60
2018-06-22T05:28:33.053Z,10.70
2018-06-22T05:31:02.172Z,10.70
2018-06-22T05:33:30.326Z,10.80
2018-06-22T05:35:58.692Z,10.80
2018-06-22T05:38:26.885Z,10.80
2018-06-22T05:40:55.026Z,10.80
2018-06-22T05:43:24.796Z,10.90
2018-06-22T05:45:53.024Z,10.90
2018-06-22T05:48:21.182Z,10.90
2018-06-22T05:50:49.363Z,10.90
2018-06-22T05:53:17.492Z,10.90
2018-06-22T05:55:45.647Z,11.00
2018-06-22T05:58:13.897Z,11.00
2018-06-22T06:00:42.050Z,11.00
2018-06-22T06:05:38.181Z,11.10
2018-06-22T06:08:06.439Z,11.20
2018-06-22T06:10:34.797Z,11.20
2018-06-22T06:13:03.167Z,11.30
2018-06-22T06:15:31.317Z,11.30
2018-06-22T06:18:00.169Z,11.30
2018-06-22T06:20:28.332Z,11.30
2018-06-22T06:22:56.577Z,11.30
2018-06-22T06:25:24.804Z,11.40
2018-06-22T06:27:52.952Z,11.40
2018-06-22T06:30:21.193Z,11.50
2018-06-22T06:32:49.351Z,11.50
2018-06-22T06:35:17.506Z,11.60
2018-06-22T06:37:45.857Z,11.60
2018-06-22T06:40:14.009Z,11.70
2018-06-22T06:42:42.175Z,11.70
2018-06-22T06:45:10.360Z,11.80
2018-06-22T06:47:38.531Z,11.80
2018-06-22T06:50:06.704Z,11.80
2018-06-22T06:52:34.962Z,11.80
2018-06-22T06:55:03.128Z,12.30
2018-06-22T06:57:31.300Z,11.90
2018-06-22T06:59:59.520Z,11.90
2018-06-22T07:02:27.680Z,12.00
2018-06-22T07:04:55.848Z,12.00
2018-06-22T07:07:24.005Z,12.10
2018-06-22T07:09:52.269Z,12.10
2018-06-22T07:12:20.462Z,12.10
2018-06-22T07:14:48.637Z,12.10
2018-06-22T07:17:16.863Z,12.20
2018-06-22T07:19:44.969Z,12.30
2018-06-22T07:22:13.184Z,12.40
2018-06-22T07:24:41.417Z,12.40
2018-06-22T07:27:09.534Z,12.50
2018-06-22T07:29:37.740Z,12.60
2018-06-22T07:32:05.982Z,12.60
2018-06-22T07:34:34.192Z,12.60
2018-06-22T07:37:02.449Z,12.60
2018-06-22T07:39:30.601Z,12.50
2018-06-22T07:41:58.742Z,12.50
2018-06-22T07:44:26.950Z,12.60
2018-06-22T07:46:55.097Z,12.60
2018-06-22T07:49:23.252Z,12.60
2018-06-22T07:51:51.454Z,12.60
2018-06-22T07:54:19.621Z,12.50
2018-06-22T07:56:47.760Z,12.60
2018-06-22T07:59:15.951Z,12.60
2018-06-22T08:01:44.111Z,12.90
2018-06-22T08:04:12.275Z,13.10
2018-06-22T08:06:40.408Z,13.20
2018-06-22T08:09:08.939Z,13.30
2018-06-22T08:11:37.125Z,13.40
2018-06-22T08:14:05.401Z,13.50
2018-06-22T08:16:33.592Z,13.60
2018-06-22T08:19:01.740Z,13.70
2018-06-22T08:21:29.892Z,13.70
2018-06-22T08:23:58.069Z,13.70
2018-06-22T08:26:26.292Z,13.60
2018-06-22T08:28:54.544Z,13.60
2018-06-22T08:31:22.684Z,13.50
2018-06-22T08:33:50.831Z,13.50
2018-06-22T08:36:19.017Z,13.50
2018-06-22T08:38:47.165Z,13.40
2018-06-22T08:41:15.327Z,13.50
2018-06-22T08:43:43.509Z,13.50
2018-06-22T08:46:11.679Z,13.40
2018-06-22T08:51:08.756Z,13.30
2018-06-22T08:53:36.952Z,13.30
2018-06-22T08:56:05.125Z,13.20
2018-06-22T08:58:33.269Z,13.20
2018-06-22T09:01:01.496Z,13.20
2018-06-22T09:03:29.647Z,13.20
2018-06-22T09:05:57.797Z,13.20
2018-06-22T09:08:25.943Z,13.30
2018-06-22T09:10:54.132Z,13.30
2018-06-22T09:13:22.296Z,13.30
2018-06-22T09:18:18.432Z,13.30
2018-06-22T09:20:46.669Z,13.40
2018-06-22T09:23:14.822Z,13.40
2018-06-22T09:25:42.981Z,13.40
2018-06-22T09:28:11.125Z,13.50
2018-06-22T09:30:39.331Z,13.50
2018-06-22T09:33:07.499Z,13.50
2018-06-22T09:35:35.758Z,13.50
2018-06-22T09:38:03.905Z,13.50
2018-06-22T09:40:32.061Z,13.50
2018-06-22T09:43:00.438Z,13.50
2018-06-22T09:45:28.432Z,13.60
2018-06-22T09:47:56.576Z,13.60
2018-06-22T09:50:24.744Z,13.70
2018-06-22T09:52:53.037Z,13.70
2018-06-22T09:55:21.196Z,13.80
2018-06-22T09:57:49.346Z,13.70
2018-06-22T10:00:18.754Z,12.80
2018-06-22T10:02:47.449Z,13.80
2018-06-22T10:05:15.598Z,13.80
2018-06-22T10:07:44.063Z,13.90
2018-06-22T10:10:12.265Z,14.00
2018-06-22T10:12:40.404Z,14.00
2018-06-22T10:15:08.552Z,14.10
2018-06-22T10:17:36.758Z,14.20
2018-06-22T10:20:04.901Z,14.30
2018-06-22T10:22:33.045Z,14.40
2018-06-22T10:25:01.248Z,14.40
2018-06-22T10:27:29.440Z,14.40
2018-06-22T10:29:57.792Z,14.30
2018-06-22T10:32:25.988Z,14.30
2018-06-22T10:34:54.125Z,14.20
2018-06-22T10:37:22.333Z,14.10
2018-06-22T10:39:50.494Z,14.00
2018-06-22T10:42:18.735Z,14.00
2018-06-22T10:44:46.893Z,13.90
2018-06-22T10:47:15.052Z,13.90
2018-06-22T10:49:43.211Z,14.00
2018-06-22T10:52:11.373Z,14.20
2018-06-22T10:54:39.627Z,14.40
2018-06-22T10:57:07.848Z,14.40
2018-06-22T10:59:36.019Z,14.60
2018-06-22T11:02:04.127Z,14.60
2018-06-22T11:04:32.364Z,14.70
2018-06-22T11:07:00.500Z,14.80
2018-06-22T11:09:28.643Z,14.80
2018-06-22T11:11:57.208Z,14.90
2018-06-22T11:14:25.390Z,14.90
2018-06-22T11:16:53.559Z,14.90
2018-06-22T11:19:21.685Z,14.90
2018-06-22T11:21:49.819Z,14.80
2018-06-22T11:24:18.042Z,14.80
2018-06-22T11:26:46.197Z,14.80
2018-06-22T11:29:14.354Z,14.80
2018-06-22T11:31:42.536Z,14.80
2018-06-22T11:34:10.907Z,14.80
2018-06-22T11:36:39.041Z,14.80
2018-06-22T11:39:09.147Z,14.70
2018-06-22T11:41:37.744Z,14.70
2018-06-22T11:44:05.896Z,14.70
2018-06-22T11:46:34.076Z,14.70
2018-06-22T11:49:02.228Z,14.70
2018-06-22T11:51:30.461Z,14.70
2018-06-22T11:53:58.633Z,14.70
2018-06-22T11:56:26.777Z,14.70
2018-06-22T11:58:54.961Z,14.60
2018-06-22T12:01:23.097Z,14.60
2018-06-22T12:03:51.245Z,14.60
2018-06-22T12:06:19.508Z,14.60
2018-06-22T12:08:47.665Z,14.60
2018-06-22T12:11:15.836Z,14.60
2018-06-22T12:13:44.004Z,14.60
2018-06-22T12:16:12.372Z,14.50
2018-06-22T12:18:40.740Z,14.50
2018-06-22T12:21:09.109Z,14.40
2018-06-22T12:23:37.274Z,14.50
2018-06-22T12:26:05.720Z,14.50
2018-06-22T12:28:33.996Z,14.50
2018-06-22T12:31:02.147Z,14.50
2018-06-22T12:33:30.289Z,14.50
2018-06-22T12:35:58.437Z,14.50
2018-06-22T12:38:26.619Z,14.50
2018-06-22T12:40:54.901Z,14.60
2018-06-22T12:43:23.107Z,14.60
2018-06-22T12:45:51.314Z,14.50
2018-06-22T12:48:19.462Z,14.50
2018-06-22T12:50:47.644Z,14.50
2018-06-22T12:53:15.803Z,14.40
2018-06-22T12:55:44.371Z,14.40
2018-06-22T12:58:12.511Z,14.40
2018-06-22T13:00:40.682Z,14.50
2018-06-22T13:03:08.825Z,14.50
2018-06-22T13:05:37.053Z,14.60
2018-06-22T13:08:05.576Z,14.70
2018-06-22T13:10:33.744Z,14.80
2018-06-22T13:13:01.886Z,14.90
2018-06-22T13:15:30.078Z,14.90
2018-06-22T13:17:58.327Z,14.90
2018-06-22T13:20:26.510Z,15.00
2018-06-22T13:22:54.648Z,15.00
2018-06-22T13:25:22.816Z,15.00
2018-06-22T13:27:51.123Z,15.10
2018-06-22T13:30:19.272Z,15.20
2018-06-22T13:32:47.553Z,15.30
2018-06-22T13:35:15.865Z,15.30
2018-06-22T13:37:44.006Z,15.40
2018-06-22T13:40:13.146Z,15.40
2018-06-22T13:42:41.335Z,15.40
2018-06-22T13:45:09.496Z,15.40
2018-06-22T13:47:37.898Z,15.30
2018-06-22T13:50:06.068Z,15.30
2018-06-22T13:52:34.305Z,15.20
2018-06-22T13:55:02.937Z,15.20
2018-06-22T13:57:31.119Z,15.20
2018-06-22T13:59:59.491Z,15.10
2018-06-22T14:02:27.673Z,15.10
2018-06-22T14:05:01.331Z,15.00
2018-06-22T14:07:29.476Z,15.00
2018-06-22T14:09:57.734Z,15.00
2018-06-22T14:12:25.884Z,14.90
2018-06-22T14:14:54.054Z,15.00
2018-06-22T14:17:22.395Z,15.10
2018-06-22T14:19:50.609Z,15.30
2018-06-22T14:22:18.825Z,15.30
2018-06-22T14:24:46.964Z,15.40
2018-06-22T14:27:15.173Z,15.40
2018-06-22T14:29:43.345Z,15.40
2018-06-22T14:32:11.621Z,15.40
2018-06-22T14:34:39.763Z,15.40
2018-06-22T14:37:07.924Z,15.40
2018-06-22T14:39:36.220Z,15.40
2018-06-22T14:42:04.372Z,15.40
2018-06-22T14:44:32.699Z,15.40
2018-06-22T14:47:00.910Z,15.40
2018-06-22T14:49:29.092Z,15.40
2018-06-22T14:52:00.240Z,15.30
2018-06-22T14:54:34.127Z,15.30
2018-06-22T14:57:07.820Z,15.30
2018-06-22T14:59:41.462Z,15.40
2018-06-22T15:02:15.041Z,15.40
2018-06-22T15:04:48.711Z,15.40
2018-06-22T15:07:22.202Z,15.40
2018-06-22T15:09:50.504Z,15.40
2018-06-22T15:12:19.219Z,15.40
2018-06-22T15:14:47.909Z,15.50
2018-06-22T15:17:16.244Z,15.60
2018-06-22T15:19:45.072Z,15.70
2018-06-22T15:22:13.958Z,15.70
2018-06-22T15:24:42.104Z,15.70
2018-06-22T15:27:13.010Z,15.70
2018-06-22T15:29:41.395Z,15.80
2018-06-22T15:32:09.584Z,15.90
2018-06-22T15:34:43.076Z,16.00
2018-06-22T15:37:16.665Z,16.10
2018-06-22T15:39:50.276Z,16.20
2018-06-22T15:42:23.792Z,16.40
2018-06-22T15:44:57.384Z,16.50
2018-06-22T15:47:30.826Z,16.50
2018-06-22T15:50:04.364Z,16.30
2018-06-22T15:52:38.091Z,16.10
2018-06-22T15:55:12.257Z,15.80
2018-06-22T15:57:40.505Z,15.70
2018-06-22T16:00:10.661Z,15.60
2018-06-22T16:02:44.085Z,15.60
2018-06-22T16:05:12.280Z,15.60
2018-06-22T16:07:40.696Z,15.50
2018-06-22T16:10:08.960Z,15.50
2018-06-22T16:12:38.465Z,15.50
2018-06-22T16:15:17.800Z,15.50
2018-06-22T16:17:51.988Z,15.60
2018-06-22T16:20:25.448Z,15.80
2018-06-22T16:22:59.153Z,15.90
2018-06-22T16:25:32.606Z,15.90
2018-06-22T16:28:02.228Z,15.70
2018-06-22T16:30:30.618Z,15.60
2018-06-22T16:32:58.763Z,15.50
2018-06-22T16:35:27.159Z,15.40
2018-06-22T16:37:55.543Z,15.40
2018-06-22T16:40:24.045Z,15.30
2018-06-22T16:42:52.222Z,15.20
2018-06-22T16:45:20.361Z,15.10
2018-06-22T16:47:48.574Z,15.10
2018-06-22T16:50:16.751Z,15.30
2018-06-22T16:52:45.074Z,15.50
2018-06-22T16:55:13.539Z,15.50
2018-06-22T16:57:41.889Z,15.50
2018-06-22T17:00:10.456Z,15.40
2018-06-22T17:02:38.668Z,15.40
2018-06-22T17:05:07.361Z,15.30
2018-06-22T17:07:41.133Z,15.20
2018-06-22T17:10:14.579Z,15.10
2018-06-22T17:12:48.197Z,15.10
2018-06-22T17:15:21.788Z,15.00
2018-06-22T17:20:23.421Z,15.00
2018-06-22T17:22:51.580Z,15.30
2018-06-22T17:25:19.795Z,16.20
2018-06-22T17:27:49.016Z,17.10
2018-06-22T17:30:18.303Z,17.80
2018-06-22T17:32:48.215Z,18.20
2018-06-22T17:35:17.533Z,18.60
2018-06-22T17:37:46.810Z,19.00
2018-06-22T17:40:16.775Z,19.40
2018-06-22T17:42:46.034Z,19.40
2018-06-22T17:45:15.294Z,18.90
2018-06-22T17:47:44.529Z,18.30
2018-06-22T17:50:18.951Z,17.50
2018-06-22T17:52:48.384Z,16.90
2018-06-22T17:55:18.289Z,16.30
2018-06-22T17:57:47.524Z,15.90
2018-06-22T18:00:22.474Z,15.70
2018-06-22T18:02:56.824Z,15.50
2018-06-22T18:05:32.439Z,15.30
2018-06-22T18:08:03.263Z,15.30
2018-06-22T18:12:42.422Z,15.20
2018-06-22T18:17:41.106Z,15.00
2018-06-22T18:20:11.239Z,15.00
2018-06-22T18:22:40.646Z,14.90
2018-06-22T18:25:09.919Z,14.90
2018-06-22T18:27:39.815Z,14.80
2018-06-22T18:30:13.944Z,14.70
2018-06-22T18:32:43.027Z,14.50
2018-06-22T18:37:43.316Z,14.30
2018-06-22T18:40:14.628Z,14.20
2018-06-22T18:42:43.275Z,14.10
2018-06-22T18:45:12.242Z,14.00
2018-06-22T18:47:42.085Z,13.90
2018-06-22T18:50:11.293Z,13.90
2018-06-22T18:52:44.945Z,13.80
2018-06-22T18:55:21.046Z,13.80
2018-06-22T18:57:56.199Z,13.80
2018-06-22T19:00:31.342Z,13.80
2018-06-22T19:03:04.980Z,13.70
2018-06-22T19:05:35.219Z,13.70
2018-06-22T19:08:03.904Z,13.70
2018-06-22T19:10:33.223Z,13.70
2018-06-22T19:13:02.122Z,13.70
2018-06-22T19:15:32.714Z,13.60
2018-06-22T19:18:01.465Z,13.60
2018-06-22T19:20:30.910Z,13.60
2018-06-22T19:22:59.107Z,13.50
2018-06-22T19:25:28.709Z,13.50
2018-06-22T19:27:58.071Z,13.50
2018-06-22T19:30:27.551Z,13.50
2018-06-22T19:32:56.998Z,13.40
2018-06-22T19:35:26.143Z,13.30
2018-06-22T19:37:56.099Z,13.30
2018-06-22T19:40:26.236Z,13.30
2018-06-22T19:42:55.479Z,13.20
2018-06-22T19:45:30.506Z,13.20
2018-06-22T19:48:04.587Z,13.20
2018-06-22T19:52:42.918Z,13.10
2018-06-22T19:55:12.026Z,13.10
2018-06-22T19:57:40.256Z,13.00
2018-06-22T20:00:08.472Z,12.90
2018-06-22T20:02:38.220Z,12.90
2018-06-22T20:05:07.233Z,12.90
2018-06-22T20:07:36.420Z,12.80
2018-06-22T20:10:06.251Z,12.80
2018-06-22T20:12:35.579Z,12.70
2018-06-22T20:15:04.754Z,12.70
2018-06-22T20:17:33.994Z,12.70
2018-06-22T20:20:02.156Z,12.60
2018-06-22T20:22:30.360Z,12.60
2018-06-22T20:25:03.939Z,12.60
2018-06-22T20:27:32.108Z,12.50
2018-06-22T20:30:00.368Z,12.50
2018-06-22T20:32:28.568Z,12.50
2018-06-22T20:35:02.098Z,12.40
2018-06-22T20:37:36.261Z,12.40
2018-06-22T20:42:16.998Z,12.30
2018-06-22T20:44:50.837Z,12.30
2018-06-22T20:47:24.342Z,12.30
2018-06-22T20:49:57.914Z,12.30
2018-06-22T20:52:26.417Z,12.20
2018-06-22T20:54:55.363Z,12.20
2018-06-22T20:57:23.547Z,12.10
2018-06-22T20:59:51.735Z,12.10
2018-06-22T21:02:19.884Z,12.10
2018-06-22T21:04:48.374Z,12.10
2018-06-22T21:07:16.523Z,12.10
2018-06-22T21:09:44.756Z,12.00
2018-06-22T21:12:12.906Z,12.00
2018-06-22T21:14:41.231Z,12.00
2018-06-22T21:17:09.396Z,12.00
2018-06-22T21:19:37.544Z,12.00
2018-06-22T21:22:08.803Z,11.90
2018-06-22T21:24:37.180Z,11.90
2018-06-22T21:27:11.264Z,12.00
2018-06-22T21:29:44.818Z,11.90
2018-06-22T21:32:18.270Z,11.90
2018-06-22T21:34:51.889Z,11.90
2018-06-22T21:37:25.460Z,11.90
2018-06-22T21:40:03.521Z,11.80
2018-06-22T21:42:34.722Z,11.80
2018-06-22T21:45:02.950Z,11.80
2018-06-22T21:47:31.117Z,11.70
2018-06-22T21:49:59.318Z,11.70
2018-06-22T21:52:27.592Z,11.70
2018-06-22T21:54:55.807Z,11.70
2018-06-22T21:57:23.961Z,11.60
2018-06-22T21:59:52.140Z,11.60
2018-06-22T22:02:20.352Z,11.60
2018-06-22T22:04:49.553Z,11.50
2018-06-22T22:07:17.974Z,11.50
2018-06-22T22:09:46.128Z,11.50
2018-06-22T22:12:14.358Z,11.40
2018-06-22T22:14:42.496Z,11.40
2018-06-22T22:17:10.655Z,11.40
2018-06-22T22:19:39.237Z,11.30
2018-06-22T22:22:07.848Z,11.30
2018-06-22T22:24:36.007Z,11.20
2018-06-22T22:27:04.178Z,11.20
2018-06-22T22:29:32.321Z,11.20
2018-06-22T22:32:00.541Z,11.10
2018-06-22T22:34:28.794Z,11.10
2018-06-22T22:36:56.959Z,11.10
2018-06-22T22:39:25.128Z,11.00
2018-06-22T22:41:53.313Z,11.00
2018-06-22T22:44:21.449Z,11.00
2018-06-22T22:46:49.605Z,10.90
2018-06-22T22:49:17.803Z,10.90
2018-06-22T22:51:45.960Z,10.90
2018-06-22T22:54:14.197Z,10.80
2018-06-22T22:56:42.373Z,10.80
2018-06-22T22:59:10.515Z,10.80
2018-06-22T23:04:06.637Z,10.70
2018-06-22T23:06:34.816Z,10.70
2018-06-22T23:09:03.088Z,10.60
2018-06-22T23:11:31.301Z,10.60
2018-06-22T23:13:59.483Z,10.60
2018-06-22T23:16:27.639Z,10.60
2018-06-22T23:18:55.814Z,10.50
2018-06-22T23:21:24.041Z,10.50
2018-06-22T23:23:52.196Z,10.50
2018-06-22T23:26:20.381Z,10.50
2018-06-22T23:28:48.552Z,10.50
2018-06-22T23:31:16.836Z,10.50
2018-06-22T23:33:45.109Z,10.40
2018-06-22T23:36:13.303Z,10.40
2018-06-22T23:38:41.472Z,10.40
2018-06-22T23:41:09.662Z,10.40
2018-06-22T23:43:37.818Z,10.40
2018-06-22T23:46:06.019Z,10.40
2018-06-22T23:48:34.191Z,10.30
2018-06-22T23:51:02.341Z,10.30
2018-06-22T23:53:30.538Z,10.30
2018-06-22T23:55:58.701Z,10.30
2018-06-22T23:58:26.920Z,10.30
